events-overview

Lake Murray Triathlon

 

Overall Men

Dreher Island State Recreation Area - 3677 State Park Rd - Prosperity, SC 29127 5/21/2006 10:00AM

** Results are for the private use of participants and are the Intellectual Property of Set Up Events. Unauthorized use of these results is prohibited.

Place Bib Age NAME CITY/STATE Rank SWIM T1 Rank BIKE T2 Rank RUN PENALTY TIME DQ
1129RADEK PARNICACZECH REPUBLIC400:10:1600:00:352300:40:4800:00:30200:17:24 01:09:30 
2537GREGG CROMERSUMMERVILLE SC2300:12:13   00:00:27100:17:15 01:09:42 
325926ZACHARY STROUDCHARLESTON SC700:10:4700:00:41700:39:1400:00:311100:18:34 01:09:45 
4236BRYAN BENITEZ-NELSONCOLUMBIA SC800:11:0900:00:461100:40:0300:00:29300:17:24 01:09:50 
533326JAMIE CHURCHGREER SC1300:11:4200:00:54300:38:4900:00:31900:18:24 01:10:18 
6323JOHN ALVAREZBLUFFTON SC600:10:4600:00:531000:40:0000:00:301300:18:39 01:10:46 
74142CHRISTOPHER GIORDANELLISIMPSONVILLE SC6300:14:0600:00:56100:37:1000:00:36800:18:23 01:11:10 
81729ANDREW BABCOCKELGIN SC500:10:2200:00:423100:41:4600:00:322600:19:30 01:12:50 
934940HUGH MYRICKCHARLESTON SC3400:12:5100:00:45900:40:0000:00:341500:18:46 01:12:53 
108539NICK FELIXHILTON HEAD ISLAND SC4300:13:2100:00:491900:40:3500:00:29700:18:00 01:13:12 
1137152IAN DAVIDSON, JRCLEMSON SC1500:11:4900:01:122400:41:0500:00:421600:18:51 01:13:37 
1220343BRIAN ALLAINSUMMERVILLE SC3300:12:4900:01:031200:40:0600:00:482000:19:05 01:13:49 
13839CHRIS SMUTZERFOUNTAIN INN SC9000:14:5700:00:55600:39:0500:00:351200:18:37 01:14:06 
1434443EDWIN KOHNCAMDEN SC2600:12:2600:00:471700:40:2700:00:423100:20:00 01:14:20 
1536438NICHOLAS TAYLORGILBERT SC5000:13:4100:00:47400:38:5700:00:344100:20:46 01:14:44 
1618740ALLAN MCLELANDDARLINGTON SC2500:12:1900:00:471800:40:3300:00:305100:20:57 01:15:03 
1729135WILLIAM BOONEMT. PLEASANT SC6700:14:1100:00:501600:40:2100:00:451800:19:00 01:15:05 
1813845JOE HAMMONDTRAVELERS REST SC3900:13:0500:01:034300:42:3000:00:44500:17:53 01:15:13 
19945TED HUBBARDTRYON NC3100:12:3800:00:445800:43:1700:00:331000:18:33 01:15:44 
2029741DUSTAN BARBERSIMPSONVILLE SC2800:12:3000:01:161400:40:1100:00:485400:21:04 01:15:46 
21443FRANK ROTHGREENVILLE SC1900:12:0200:00:542700:41:1400:00:355600:21:06 01:15:48 
2212850JIM O'LOUGHLINFLORENCE SC3200:12:4100:01:091500:40:1900:00:554300:20:48 01:15:50 
2332241ROB REEDCOLUMBIA SC4900:13:3600:00:58500:39:0200:01:165500:21:04 01:15:54 
2414927KURT WILSONCANDLER NC5400:13:5200:00:594400:42:3300:00:37600:17:59 01:15:58 
251630TRENT HUMPHREYSGREENWOOD SC9600:15:2100:01:252000:40:4100:00:54400:17:48 01:16:06 
2627736TRIPP DAVISCOLUMBIA SC4000:13:1000:00:453800:42:1600:00:242900:19:44 01:16:17 
278645KEN FRANCECLEMSON SC5300:13:4900:00:473500:42:0300:00:432100:19:06 01:16:26 
2833040JEFFREY WOLFSONROSWELL GA7500:14:2500:00:533400:41:5300:00:332200:19:11 01:16:53 
2925415JORDAN BERRYFORT MILL SC200:09:5500:00:388800:45:2900:00:353700:20:32 01:17:07 
3037238ALFRED OLIVETTIHILTON HEAD ISLAND SC8200:14:3800:01:042600:41:0900:00:333000:19:57 01:17:20 
PlaceBibAgeNAMECITY/STATERankSWIMT1RankBIKET2RankRUNPENALTYTIMEDQ
311843ANTHONY BUZZETTILEXINGTON SC6000:14:0400:01:062500:41:0800:00:483600:20:31 01:17:34Y
3215447KENNETH DAIGLEMT PLEASANT SC3000:12:3300:01:022200:40:4600:00:438400:22:37 01:17:39 
333253JOEY BOWLERGREENVILLE SC6200:14:0600:01:162100:40:4500:00:504200:20:47 01:17:42 
3432823JOHN WESTBROOKSPICKENS SC6400:14:0900:01:063000:41:4500:00:523200:20:02 01:17:51 
3529228DAVID REDMONDGREENVILLE SC9300:15:0100:01:123300:41:4900:00:482500:19:26 01:18:15 
3616826LAT PURSERCHARLOTTE NC10600:15:4600:00:544500:42:4000:00:311400:18:43 01:18:34 
3728450WILLIAM EHRHORNFLORENCE SC2000:12:0500:01:046600:43:4000:00:366100:21:16 01:18:40 
3815935KEITH O'CONNELLGREER SC6500:14:1000:01:30200:37:2800:00:5512700:24:54 01:18:55 
3911733JADE COSTENIRMO SC5200:13:4900:01:217100:44:0800:00:401900:19:02 01:18:57 
4021333PETE RISELLSIMPSONVILLE SC5100:13:4100:01:054700:42:4500:00:364900:20:54 01:18:58 
418046ED HUGHESGREENVILLE SC11300:16:0600:01:302800:41:2500:01:051700:18:55 01:19:00 
4217143LEIGHTON LORDCOLUMBIA SC4500:13:2500:00:536700:43:4600:00:493500:20:11 01:19:02 
4332350JOHN SAATHOFFSIMPSONVILLE SC1000:11:2800:01:067700:44:4700:00:575000:20:54 01:19:10 
4410542E. TEMPLEFLORENCE SC4800:13:3500:01:115100:43:0200:00:384600:20:50 01:19:14 
4511120STEVEN LUCKIECOLUMBIA SC100:09:2600:02:2512200:47:4400:00:342300:19:15 01:19:22 
4625547STEVEN RUDNICKICOLUMBIA SC6600:14:1000:00:534600:42:4300:00:326000:21:16 01:19:32 
477843OLEG VENGEROWSKYMANNING SC4200:13:2000:01:155400:43:1100:00:465700:21:07 01:19:37 
4818334ROBERT MATHEWSCOLUMBIA SC7000:14:1400:01:256400:43:3600:00:422700:19:41 01:19:37 
4918640JOHNNY MCALHANYHODGES SC1600:11:5900:01:264800:42:4600:00:489700:23:02 01:19:59 
5017927LUCAS MCCAINCOLUMBIA SC8900:14:5300:01:183200:41:4800:00:446800:21:40 01:20:21 
5128946BILL WISEMANCOLUMBIA SC8500:14:4300:00:542900:41:3800:00:338500:22:38 01:20:24 
5213116JOSEPH VEALECHARLOTTE NC300:09:5900:01:1010800:47:0400:00:456400:21:32 01:20:30 
5337829STEPHEN SHENALGREENWOOD SC12100:16:3500:01:261300:40:0600:00:437300:21:52 01:20:40 
546737DAVID LEVINCHAPEL HILL NC5800:14:0000:01:204100:42:2200:00:508300:22:35 01:21:05 
558731FRANCIS GRAZIANOCOLUMBIA SC7900:14:3300:01:064000:42:2100:01:007600:22:18 01:21:16 
563544BUBBA BRUNSONFLORENCE SC7400:14:2100:01:203700:42:1500:00:468700:22:43 01:21:23 
5733728BRIAN FITZGERALDCOLUMBIA SC900:11:2700:01:029500:46:0100:00:378000:22:26 01:21:30 
583850BUDDY BAKERCOLUMBIA SC3500:12:5100:00:587200:44:1700:00:369800:23:04 01:21:44 
592027ANDREW GYVESCOLUMBIA SC12300:16:4200:01:034900:42:4600:00:484800:20:52 01:22:10 
604823ADAM DEWITTCLEMSON SC7600:14:2800:00:394200:42:2500:00:3311900:24:25 01:22:28 
6115531JASON KENDALLBROOKLYN NY3700:13:0300:00:536000:43:2200:00:4112400:24:36 01:22:34 
PlaceBibAgeNAMECITY/STATERankSWIMT1RankBIKET2RankRUNPENALTYTIMEDQ
6212543JEFF RUBLECOLUMBIA SC13900:17:1500:01:275000:43:0000:00:533300:20:09 01:22:42 
6327943FRANKIE VALLEHARTSVILLE SC11000:16:0100:01:125200:43:0300:00:547000:21:44 01:22:52 
645020DAVID CHAPELLELITTLE MOUNTAIN SC8300:14:3800:01:058400:45:2000:00:256300:21:30 01:22:56 
6534830BILL MEINELCOLUMBIA SC11400:16:0700:01:047300:44:2400:00:443800:20:42 01:22:58 
6623758SHAWN CHILLAGCOLUMBIA SC3600:12:5300:02:038700:45:2700:00:557200:21:50 01:23:06 
677541RICHARD GRIMBALLGREENVILLE SC4400:13:2100:01:099600:46:0200:00:387400:22:04 01:23:12 
6821722WILLIAM RAINESFLORENCE SC4700:13:3500:01:368100:45:1200:00:388800:22:46 01:23:45 
6937627SHAUN ROONEYSUMTER SC6100:14:0400:01:1310900:47:0400:00:574400:20:49 01:24:06 
705441CHRIS TAYLORSIMPSONVILLE SC9200:14:5900:01:406100:43:2700:01:089200:22:54 01:24:06 
7138244DEREK EVERLINGCOLUMBIA SC5600:13:5700:01:53800:39:5300:01:1316300:27:17 01:24:10 
7233133JAMES BUSBYCOLUMBIA SC9500:15:1600:01:038000:45:0900:00:307900:22:26 01:24:21 
7326735LEE WILLIAMSCAMDEN SC9700:15:2500:01:186300:43:3600:00:3110400:23:33 01:24:22 
7417423LUCAS FAULKENBERRYCOLUMBIA SC10200:15:3500:01:2810700:47:0300:00:412800:19:42 01:24:28 
753632JOSHUA GOWANSCOLUMBIA SC7300:14:1900:01:323900:42:2000:01:1113600:25:11 01:24:30 
7632520BRADLEY SMITHGREER SC8400:14:3900:01:3610000:46:3600:00:505800:21:10 01:24:48 
7726640ROBERT WILLIAMSNORTH AUGUSTA SC10900:16:0000:01:319400:46:0100:00:364000:20:45 01:24:50 
7813936JOHN PERSONCOLUMBIA SC4100:13:1400:01:5110400:46:4600:00:518100:22:27 01:25:08 
7926545THOMAS SLIGHMARTINEZ GA5900:14:0200:01:139900:46:2900:00:389300:22:56 01:25:17 
8010244GEORGE SCHMIELERCHAPIN SC1100:11:3600:01:3114100:49:0600:00:328600:22:40 01:25:24 
817046DAVE HUNTERIRMO SC2900:12:3200:01:217000:44:0200:00:5914900:26:36 01:25:28 
8236535HARRY WOODSANDY SPRINGS GA8800:14:4900:01:008500:45:2100:00:5410600:23:36 01:25:38 
8314419JOHN WILLIAMSNEWBERRY SC8100:14:3700:02:2810600:47:0300:01:243400:20:09 01:25:39 
8410029GREGORY PRUDHOMMECHARLOTTE NC11200:16:0400:01:3310200:46:3600:00:335900:21:10 01:25:54 
854053BARRY CLARKCOLUMBIA SC1700:12:0000:01:5411800:47:2200:00:5511100:23:58 01:26:06 
861329JASON BURKECHARLESTON SC1800:12:0200:01:2513000:48:1000:01:1510000:23:19 01:26:08 
874733CHRIS DISBROWPENDLETON SC11500:16:0900:00:479200:45:5000:00:329600:23:02 01:26:19 
8824131SEBASTIEN COLOTGREENVILLE SC15200:17:4500:00:476500:43:3700:00:5310100:23:20 01:26:21 
8928035MARK OLSZOWYLAURINBURG NC13300:17:0500:01:086900:43:4900:00:4310900:23:43 01:26:27 
9035145GENE SUMMEYKINGS MOUNTAIN NC13000:17:0100:01:255500:43:1200:00:5611300:24:02 01:26:33 
9123128DYLAN WIEKCOLUMBIA SC20500:22:0200:01:205700:43:1400:00:342400:19:25 01:26:34 
929438GREG GIBSONSPARTANBURG SC2200:12:0900:00:4511000:47:0500:00:3814400:26:09 01:26:44 
PlaceBibAgeNAMECITY/STATERankSWIMT1RankBIKET2RankRUNPENALTYTIMEDQ
931237ROBERT CARPENTERGILBERT SC18400:19:4400:01:336800:43:4700:00:346500:21:35 01:27:11 
9416047JOSEPH LAMBAIKEN SC13200:17:0400:02:019700:46:1300:01:044700:20:51 01:27:11 
9533642RUSS FENDERORANGEBURG SC8700:14:4500:01:189300:45:5500:00:4712500:24:43 01:27:26 
9622945WILLIAM ROSCHEBEAUFORT SC14800:17:3100:01:005600:43:1400:01:029000:22:5100:02:0001:27:36 
9711442JAMES KISERDARLINGTON SC11800:16:2500:01:327400:44:4100:01:1011000:23:52 01:27:38 
988413JACK FELIXHILTON HEAD ISLAND SC12200:16:4200:02:0211100:47:0900:00:485300:21:04 01:27:43 
9910823ANDREW HOWARDSTONE MOUNTAIN GA16700:18:5600:00:578200:45:1200:00:417500:22:05 01:27:50 
10027238TODD MORGANWALHALLA SC15500:17:5400:01:198300:45:1400:00:469100:22:52 01:28:03 
10134134CHARLES HIERSSPRINGFIELD SC18700:20:0300:01:517500:44:4400:00:514500:20:49 01:28:17 
10220921MICHAEL DOLECOLUMBIA SC9100:14:5800:01:5912000:47:3000:01:058900:22:50 01:28:21 
1037338ED DIXONFLORENCE SC10700:15:5100:01:2711200:47:1100:00:529900:23:18 01:28:37 
10435217CAMERON GILLCAMDEN SC9800:15:2600:01:0213200:48:2000:01:0810800:23:42 01:29:37 
10523835SCOTT PHILLIPSSIMPSONVILLE SC11600:16:2300:01:3514500:49:2200:01:205200:21:00 01:29:39 
10632451RICHARD SCHULTZIRMO SC17000:19:0400:00:446200:43:3600:01:2212900:24:57 01:29:42 
10711033IAN FORBES-JONESCOLUMBIA SC7800:14:3300:01:1610300:46:4400:00:5514600:26:18 01:29:45 
10828250WESLEY SPRATTELGIN SC2100:12:0800:01:199100:45:4500:01:0518300:29:29 01:29:45 
10922534ROBERT LOMINACKCOLUMBIA SC12400:16:4500:02:0412700:48:0600:01:107100:21:45 01:29:48 
11019240MARSHALL RAMSEYCOLUMBIA SC15300:17:4900:02:5011600:47:1800:00:466200:21:22 01:30:03 
11125045STEVE LEWISEASLEY SC1200:11:4000:05:1611500:47:1700:01:0212600:24:54 01:30:07 
11227837TIMOTHY MCDONALDCOLUMBIA SC14500:17:2700:02:1112300:47:4600:01:196900:21:43 01:30:24 
11316234KEVIN SWANSONBEAUFORT SC17500:19:1600:01:225900:43:1700:01:4013200:25:02 01:30:35 
11413533JEFF MRACHEKCOLUMBIA SC16600:18:5300:02:139000:45:4100:01:238200:22:33 01:30:40 
11517726DAVID HENDERSONCOLUMBIA SC6800:14:1200:01:4012600:48:0400:00:5914100:25:58 01:30:52 
1161442WAYNE PEREAULTCOLUMBIA SC10500:15:4300:02:338900:45:3000:01:1614200:25:59 01:30:59 
11721442RUSSELL ROMANGREER SC7100:14:1500:02:0413600:48:4300:01:3313500:25:07 01:31:41 
1186353TIM CUNNINGHAMFLORENCE SC19000:20:1400:01:4110100:46:3600:00:527700:22:21 01:31:43 
11929831MATT BARKERCOLUMBIA SC13800:17:1100:02:1013100:48:1300:00:5710200:23:24 01:31:53 
1209236ERIC SANDIFERTAYLORSVILLE NC14900:17:3300:01:4713300:48:2100:00:4810300:23:29 01:31:57 
12134040DOUG GRAULIRMO SC11700:16:2300:02:167600:44:4600:01:2516100:27:12 01:32:01 
12235838WILLIAM MCKERNANFAYETTEVILLE NC         01:32:02 
12334736ANDY MEDGYESYREIDVILLE SC13400:17:0600:01:5313400:48:3200:01:0110500:23:36 01:32:05 
PlaceBibAgeNAMECITY/STATERankSWIMT1RankBIKET2RankRUNPENALTYTIMEDQ
12428342WILLIAM WESTERKAMCOLUMBIA SC8000:14:3400:01:5518300:52:1700:00:597800:22:25 01:32:08 
12529639KEVIN BAIRORANGEBURG SC12000:16:3300:01:159800:46:2300:01:1916600:27:33 01:33:01 
1268363CURTIS FARMERMOORESBORO NC7700:14:3100:01:5613500:48:3900:01:3715100:26:38 01:33:19 
1274536CHRIS BRODERICKCOLUMBIA SC10000:15:3100:02:4811900:47:2800:01:0415800:27:02 01:33:51 
12818441MARTY BALTZEGARIRMO SC12700:16:5000:01:5712900:48:0900:00:3914700:26:21 01:33:54 
12927547TOMMY RICKSFAIRFAX SC19700:21:0100:01:458600:45:2600:01:1313100:25:00 01:34:24 
13014334JOHNNY GOFORTHCOLUMBIA SC10400:15:4300:01:4114700:49:4200:00:5515000:26:37 01:34:37 
1315541CHRIS MAYESIRMO SC10100:15:3500:02:3912400:47:5000:01:0716700:27:35 01:34:44 
13223235ROBERT RATTERREEBLYTHEWOOD SC11100:16:0200:01:1315100:49:5600:02:0013800:25:38 01:34:46 
1333339BRETT TURNERSAVANNAH GA15900:18:1600:01:5614600:49:2400:00:5711500:24:21 01:34:51 
13434238WINSTON HOLLIDAYCOLUMBIA SC12800:16:5500:02:2919100:53:3800:01:133900:20:42 01:34:55 
13511645JOSEPH HURTEAU, JRMATTHEWS NC12900:17:0000:01:2913900:48:5000:01:0815200:26:43 01:35:08 
13636346HARVEY MYERCOLUMBIA SC13600:17:0700:01:2818200:52:1200:00:4910700:23:37 01:35:12 
13727648JOHN FOUCHE'WEST COLUMBIA SC8600:14:4400:01:5715600:50:2600:00:5616400:27:21 01:35:22 
13834643TOM MCDONOUGHSIMPSONVILLE SC15700:18:0900:01:3614000:48:5600:01:0413900:25:46 01:35:29 
1395945CLINT LAMBERTSIMPSONVILLE SC16800:19:0100:01:4111300:47:1400:01:2314500:26:16 01:35:33 
1406251STEPHEN CONNELLFLORENCE SC14600:17:2900:02:1214900:49:4800:01:0613300:25:03 01:35:37 
1416534DANIEL DORSELCOLUMBIA SC14700:17:3000:01:3217200:51:1500:01:0311600:24:22 01:35:40 
1426032CHRISTOPHER BOOZERLEXINGTON SC21700:23:2700:02:247800:44:4700:00:5311800:24:24 01:35:53 
1433927CHRISTOPHER BURWELLCOLUMBIA SC14100:17:1700:02:1817300:51:2800:00:5511200:23:59 01:35:55 
1442745WILLIAM HASELDENCOLUMBIA SC7200:14:1700:02:3719400:54:0900:00:3412200:24:33 01:36:08 
14511213JACK MCALHANYHODGES SC18500:19:4700:01:1715200:49:5900:01:0611400:24:03 01:36:10 
1465638CHRIS MCCARTYIRMO SC5500:13:5300:01:4813700:48:4500:00:5819500:30:50 01:36:11 
14726033STEVE WEARDENMANNING SC10300:15:4000:01:3215400:50:1200:01:0416900:27:48 01:36:15 
14824926STEVE SMITHLEXINGTON SC2700:12:3000:01:3018000:52:0900:00:5418200:29:21 01:36:22 
14914137JON SMITHLEXINGTON SC11900:16:2900:01:2615700:50:3100:01:1215400:26:51 01:36:26 
1506448RICK RIKARDLEESVILLE SC15600:17:5900:01:2611700:47:2100:01:1517800:28:34 01:36:34 
15127051TIMOTHY MONAHANSPARTANBURG SC16400:18:4600:03:4212100:47:3600:01:5013000:24:58 01:36:50 
15218548MARK BUCHMANLEXINGTON SC3800:13:0500:02:1812500:47:5400:00:5820400:32:43 01:36:56 
15311942JEFFREY WESTBROCKIRMO SC6900:14:14    18400:29:36 01:37:08 
15437952STEVE NEWSONCOLUMBIA SC13100:17:0200:01:147900:44:5800:01:0420800:33:06 01:37:23 
PlaceBibAgeNAMECITY/STATERankSWIMT1RankBIKET2RankRUNPENALTYTIMEDQ
1557436DJ TYLERBLYTHEWOOD SC4600:13:3400:01:5116800:51:0200:01:0518800:29:58 01:37:28 
15612760JAMES SHIREHARTSVILLE SC13700:17:1000:01:2916100:50:3300:01:3415500:26:54 01:37:38 
15723437STACY SHEALYLEXINGTON SC16300:18:4200:02:0516300:50:3500:00:5913700:25:21 01:37:40 
15838646DOUG GOLDENTRAVELERS REST SC19400:20:4700:00:5815500:50:2100:01:1112100:24:32 01:37:47 
15918940MIKE SMITHEVERETT WA9900:15:3000:02:1417800:52:0300:01:1116000:27:09 01:38:05 
16038336JAMES HOLMESCAMERON SC17400:19:1600:01:2212800:48:0700:01:0717600:28:27 01:38:16 
16138441JOHN GREENCOLUMBIA SC15000:17:3500:01:1910500:46:5300:01:2219700:31:12 01:38:19 
16222831RICHARD COBLEFAYETTEVILE NC17900:19:2800:02:3319700:54:1800:00:536700:21:38 01:38:48 
16311837JEFF MONTSGILBERT SC20200:21:3600:01:3916200:50:3400:00:2912300:24:34 01:38:50 
16437026ZACHARY SUTTONCOLUMBIA SC18200:19:4200:03:1718900:53:2900:00:526600:21:36 01:38:54 
1659829JEREMY WHITLEYCOLUMBIA SC18300:19:4300:02:2117500:51:5100:01:1412000:24:26 01:39:34 
16638728KEN CALCUTTELGIN SC18900:20:1300:02:0817400:51:4500:00:4112800:24:55 01:39:40 
16726235STEVEN COMERFORDCOLUMBIA SC17200:19:0900:02:2017100:51:1300:00:4514800:26:36 01:40:01 
1681933RICHARD WELCH, JRIRMO SC12600:16:4800:02:4316400:50:4800:01:5517000:27:53 01:40:06 
16925745STEVE CHAPMANCHAPIN SC14400:17:2700:01:0319500:54:1000:00:4815300:26:47 01:40:14 
17016334KYLE EVANSPINEY FLATS TN14200:17:1700:01:3214200:49:1000:01:2520200:32:15 01:41:36 
17120151NICK THOMPSONSOUTHAMPTON20900:22:3800:02:1314300:49:1600:01:0316500:27:25 01:42:33 
17210624STEVE HOOVERGREENVILLE SC15100:17:3600:02:3719300:53:5900:01:1916200:27:15 01:42:45 
17328739WILL WILLIAMSIRMO SC20400:21:5600:02:1915000:49:5500:01:0916800:27:48 01:43:05 
17435547TONY FONSECACOLUMBIA SC18100:19:3900:02:0016600:50:5300:01:4615700:26:5900:02:0001:43:14 
17518125KELLUM MAHANW COLUMBIA SC22300:24:2800:01:5018800:53:1300:00:519500:23:01 01:43:21 
17629458ZACK BARRONPROSPERITY SC17100:19:0800:01:5317700:52:0200:01:4417900:28:38 01:43:23 
17720727PATRICK ARPMINERAL BLUFF GA22200:24:2300:01:5015900:50:3300:01:3913400:25:03 01:43:26 
1789739GREG PINNINGTONIRMO SC19300:20:4300:02:0114800:49:4300:01:0918700:29:51 01:43:26 
17935448JOE SICILIOCOLUMBIA SC5700:13:5800:01:5118700:52:4300:01:5321100:33:13 01:43:36 
1809035GREG BLASHKALEXINGTON SC22400:24:5700:02:0516900:51:0400:01:2111700:24:22 01:43:47 
18113234JEFFREY MAKALACOLUMBIA SC20600:22:0300:01:1611400:47:1600:00:5420700:33:04 01:44:31 
18235637KNUD FOSSCOLUMBIA SC17800:19:2500:02:5416700:50:5500:01:1919000:30:01 01:44:33 
1836144CHRIS MCGREEVYIRMO SC15400:17:5100:01:4821000:58:1500:01:0814000:25:51 01:44:50 
18430020AUSTIN BROWNHODGES SC23201:26:16 3600:42:11    01:45:09 
1856643DAVID SPEIGHTMAULDIN SC10800:15:5200:01:4316000:50:3300:01:1821900:36:02 01:45:26 
PlaceBibAgeNAMECITY/STATERankSWIMT1RankBIKET2RankRUNPENALTYTIMEDQ
18633228CYRIL CHARPILLEGREENVILLE SC19900:21:0700:01:5015300:50:0300:01:4919400:30:48 01:45:36 
18734333ANDERSON HORNEGREENVILLE SC12500:16:4600:01:1914400:49:2200:01:0122300:37:14 01:45:39 
18823930SCOTT SCHLOFMANCOLUMBIA SC15800:18:1400:01:4321300:59:2100:01:1514300:26:07 01:46:38 
18927327RYAN TOWNSENDCOLUMBIA SC20300:21:4100:02:5317000:51:1300:00:4519100:30:21 01:46:50 
1905337CHRIS PIERSONCHAPIN SC16100:18:4000:02:4517600:52:0100:02:1419900:31:17 01:46:54 
19112452JIMMY PARHAMIRMO SC18000:19:3300:02:4818600:52:3300:00:4620000:31:17 01:46:55 
19215649GREGORY MYERHIGHLAND PARK NJ21600:23:0500:02:1818400:52:2400:01:2917300:28:00 01:47:13 
19328535BILL MCAFEEIRMO SC19100:20:1700:02:0119000:53:3600:00:5019300:30:43 01:47:26 
1948845MARK STEVENSCHAPIN SC22100:24:2000:01:0617900:52:0600:01:3417500:28:24 01:47:28 
19510438JOHN HANSONCOLUMBIA SC21300:22:5700:02:5016500:50:4900:01:0918600:29:51 01:47:33 
19623555STEVE CAMERONSPARTANBURG SC21500:23:0200:02:0818500:52:2500:01:3115900:27:0400:02:0001:48:09 
19713055JIM ROBERTSGREENVILLE SC21800:23:3600:02:3220700:57:2000:01:569400:22:59 01:48:20 
19822215TURNER RICHMONDKERNERSVILLE NC14300:17:2200:02:3318100:52:1100:01:2321500:35:10 01:48:37 
19925837STEPHEN STRICKLANDGREENVILLE SC19800:21:0200:02:2413800:48:4600:01:2821800:35:39 01:49:16 
20019837K. JOHNSONSAVANNAH GA19500:20:4900:02:4919900:54:4700:01:2618900:30:00 01:49:47 
2013737MICHAEL WILSONJOANNA SC19200:20:1900:02:4520600:57:1300:01:3617700:28:33 01:50:24 
20222138RAY HUNTCHAPIN SC14000:17:1600:01:5819200:53:5800:01:1622400:37:18 01:51:43 
20321043LARRY SMITHSIMPSONVILLE SC21000:22:3900:02:0419600:54:1400:01:3418100:29:1500:02:0001:51:45 
2042846WILLIAM MARSHALLCLEMMONS NC18600:19:5400:02:0819800:54:3200:01:0621200:34:12 01:51:51 
20522756RON HORTONCHARLOTTE NC20000:21:2200:03:1120000:54:5100:01:3619600:31:04 01:52:01 
20621944RICHARD FIELDSIRMO SC17700:19:2400:02:0221200:59:1400:01:1919200:30:36 01:52:33 
20736650FRANK CIERNICKCOLUMBIA SC16500:18:5300:03:0721801:00:4100:00:4718000:29:12 01:52:37 
2087277RICHARD MANDELLCOLUMBIA SC19600:20:5800:02:0020300:55:5600:01:5720300:32:35 01:53:24 
20917038LEE BALDWINCOLUMBIA SC17600:19:2200:01:4920900:58:0500:01:2720600:33:01 01:53:41 
2101540CLINT BURDETTIRMO SC21200:22:4400:02:2320400:55:5600:01:0120100:32:10 01:54:13 
21110352RUSSELL HOBBSBEAUFORT SC22500:27:3600:02:1115800:50:3100:01:5520500:32:45 01:54:57 
21221624CHRIS RAWLINGSCAYCE SC18800:20:1000:01:5922001:02:1000:00:5418500:29:47 01:54:58 
21320037MATTHEW NEWELLANDERSON SC22000:24:0000:01:2921601:00:0100:01:4717100:27:53 01:55:09 
2146957DAVID DONELSONGREENVILLE SC13500:17:0600:02:2920800:57:4500:03:0021400:34:56 01:55:14 
2159338GLENN SHEALYLITTLE MOUNTAIN SC20700:22:0700:03:2522101:02:1700:00:5315600:26:56 01:55:37 
21614232JON BRIDGESCOLUMBIA SC21900:24:0000:02:3221901:01:0300:01:2017400:28:17 01:57:11 
PlaceBibAgeNAMECITY/STATERankSWIMT1RankBIKET2RankRUNPENALTYTIMEDQ
2173059BRIAN CANNONBOILING SPRINGS SC17300:19:1200:02:4121100:59:1200:02:5721300:34:37 01:58:37 
21819942HOLCOMBE SMITHCOLUMBIA SC20100:21:3000:02:5620100:55:2900:01:2722100:36:2400:02:0001:59:45 
21918038ROGER PRUITTCOLUMBIA SC16900:19:0400:02:1921701:00:0200:01:1822200:37:05 01:59:46 
22027146ANTHONY BERRYFORT MILL SC23000:30:0000:01:3320200:55:5100:01:3419800:31:14 02:00:11 
22119653MARK BRANTLEYCHARLOTTE NC9400:15:1100:02:5022301:07:2100:00:5721700:35:29 02:01:47 
22228658WILLIAM MASTRIANIBLUFFTON SC20800:22:1000:02:0921400:59:2400:01:1522500:38:26 02:03:21 
22313447JIM MORANGREER SC16000:18:3000:03:0622201:06:1300:01:1821600:35:23 02:04:27 
2243133DAVID MITCHELLJACKSONVILLE NC22800:28:3900:04:3220500:56:1700:01:5522000:36:04 02:07:26 
2259917GREGORY MYERHIGHLAND PARK NJ16200:18:4200:01:3622801:20:2300:00:2417200:27:57 02:09:00 
22629923ANDREW BENTONGILBERT SC21400:22:5900:02:0021500:59:2400:01:3722800:44:40 02:10:38 
22710726WILLIAM HOUSEIRMO SC21100:22:4200:03:0122501:15:0300:01:3120900:33:08 02:15:24 
22819339MICHAEL STROUDNEWBERRY SC23100:41:5800:03:5822401:09:5300:01:0021000:33:11 02:29:58 
2299160GENE TEALCHAPIN SC22900:29:1600:03:0022601:17:0300:01:4022600:39:01 02:29:58 
23010150HENRY GRIFFINIRMO SC22700:27:5100:03:1722701:18:3800:01:1422700:43:47 02:34:45 
23125141KEN HANSONLEXINGTON SC22600:27:4800:06:1322901:30:1000:01:3922900:50:06 02:55:55 
23224041MATTHEW SEAMANSBEAUFORT SC2400:12:1800:00:515300:43:10      
23325640STEFAN TOLANGREER SC1400:11:4600:02:03        

** Results are for the private use of participants and are the Intellectual Property of Set Up Events. Unauthorized use of these results is prohibited.